createdAt,value
2023-03-17T00:01:16.549Z,8.10
2023-03-17T00:03:45.584Z,8.08
2023-03-17T00:06:17.353Z,8.05
2023-03-17T00:08:46.238Z,8.03
2023-03-17T00:11:15.013Z,8.00
2023-03-17T00:13:42.268Z,7.96
2023-03-17T00:16:29.325Z,7.90
2023-03-17T00:18:57.615Z,7.87
2023-03-17T00:21:30.569Z,7.83
2023-03-17T00:23:58.447Z,7.80
2023-03-17T00:26:25.242Z,7.77
2023-03-17T00:28:53.038Z,7.78
2023-03-17T00:31:23.866Z,7.76
2023-03-17T00:33:55.083Z,7.74
2023-03-17T00:36:26.127Z,7.73
2023-03-17T00:38:52.799Z,7.70
2023-03-17T00:41:19.895Z,7.70
2023-03-17T00:43:46.419Z,7.67
2023-03-17T00:46:19.674Z,7.66
2023-03-17T00:48:46.796Z,7.66
2023-03-17T00:51:13.334Z,7.62
2023-03-17T00:53:39.916Z,7.62
2023-03-17T00:56:14.484Z,7.59
2023-03-17T00:58:41.207Z,7.57
2023-03-17T01:01:08.731Z,7.54
2023-03-17T01:03:35.472Z,7.54
2023-03-17T01:06:03.419Z,7.52
2023-03-17T01:08:31.393Z,7.51
2023-03-17T01:10:58.596Z,7.49
2023-03-17T01:13:25.369Z,7.48
2023-03-17T01:15:52.553Z,7.48
2023-03-17T01:18:22.823Z,7.48
2023-03-17T01:20:50.289Z,7.49
2023-03-17T01:23:17.847Z,7.48
2023-03-17T01:25:44.884Z,7.49
2023-03-17T01:28:17.972Z,7.49
2023-03-17T01:30:45.225Z,7.50
2023-03-17T01:33:13.110Z,7.50
2023-03-17T01:35:41.461Z,7.51
2023-03-17T01:38:08.636Z,7.51
2023-03-17T01:40:44.386Z,7.52
2023-03-17T01:43:10.829Z,7.49
2023-03-17T01:46:17.125Z,7.48
2023-03-17T01:48:57.157Z,7.45
2023-03-17T01:51:33.244Z,7.42
2023-03-17T01:54:06.744Z,7.40
2023-03-17T01:56:33.608Z,7.37
2023-03-17T01:59:02.761Z,7.34
2023-03-17T02:01:37.392Z,7.30
2023-03-17T02:04:04.998Z,7.29
2023-03-17T02:06:32.362Z,7.26
2023-03-17T02:09:00.697Z,7.26
2023-03-17T02:11:28.533Z,7.24
2023-03-17T02:13:55.071Z,7.21
2023-03-17T02:16:21.639Z,7.17
2023-03-17T02:18:49.658Z,7.17
2023-03-17T02:21:25.191Z,7.15
2023-03-17T02:23:51.706Z,7.14
2023-03-17T02:26:20.041Z,7.11
2023-03-17T02:28:46.500Z,7.11
2023-03-17T02:31:13.118Z,7.11
2023-03-17T02:33:39.581Z,7.08
2023-03-17T02:36:06.350Z,7.08
2023-03-17T02:38:32.850Z,7.08
2023-03-17T02:40:59.299Z,7.09
2023-03-17T02:43:25.756Z,7.09
2023-03-17T02:45:52.269Z,7.08
2023-03-17T02:48:19.367Z,7.09
2023-03-17T02:50:45.970Z,7.08
2023-03-17T02:53:14.621Z,7.07
2023-03-17T02:55:42.098Z,7.06
2023-03-17T02:58:08.599Z,7.08
2023-03-17T03:00:35.101Z,7.07
2023-03-17T03:03:01.581Z,7.07
2023-03-17T03:05:28.841Z,7.07
2023-03-17T03:07:55.614Z,7.08
2023-03-17T03:10:22.109Z,7.09
2023-03-17T03:12:48.544Z,7.10
2023-03-17T03:15:15.678Z,7.12
2023-03-17T03:17:42.136Z,7.12
2023-03-17T03:20:11.456Z,7.12
2023-03-17T03:22:37.935Z,7.13
2023-03-17T03:25:05.081Z,7.12
2023-03-17T03:27:32.474Z,7.13
2023-03-17T03:29:58.938Z,7.13
2023-03-17T03:32:25.901Z,7.13
2023-03-17T03:34:52.942Z,7.14
2023-03-17T03:37:21.564Z,7.15
2023-03-17T03:39:48.005Z,7.17
2023-03-17T03:42:14.469Z,7.17
2023-03-17T03:44:40.948Z,7.19
2023-03-17T03:47:07.609Z,7.21
2023-03-17T03:49:34.078Z,7.23
2023-03-17T03:52:00.522Z,7.23
2023-03-17T03:54:27.013Z,7.22
2023-03-17T03:56:53.477Z,7.23
2023-03-17T03:59:20.045Z,7.23
2023-03-17T04:01:46.523Z,7.22
2023-03-17T04:04:12.948Z,7.23
2023-03-17T04:06:39.682Z,7.25
2023-03-17T04:09:10.806Z,7.25
2023-03-17T04:11:37.261Z,7.25
2023-03-17T04:14:04.123Z,7.25
2023-03-17T04:16:30.567Z,7.26
2023-03-17T04:18:57.723Z,7.26
2023-03-17T04:21:24.224Z,7.27
2023-03-17T04:23:50.687Z,7.27
2023-03-17T04:26:18.702Z,7.28
2023-03-17T04:28:45.200Z,7.29
2023-03-17T04:31:15.462Z,7.29
2023-03-17T04:33:42.299Z,7.28
2023-03-17T04:36:17.208Z,7.30
2023-03-17T04:38:43.653Z,7.31
2023-03-17T04:41:10.264Z,7.30
2023-03-17T04:43:36.934Z,7.29
2023-03-17T04:46:03.476Z,7.31
2023-03-17T04:48:30.001Z,7.31
2023-03-17T04:50:56.499Z,7.34
2023-03-17T04:53:23.303Z,7.35
2023-03-17T04:55:49.708Z,7.36
2023-03-17T04:58:29.972Z,7.36
2023-03-17T05:00:57.047Z,7.38
2023-03-17T05:03:27.621Z,7.39
2023-03-17T05:05:54.497Z,7.40
2023-03-17T05:08:20.972Z,7.40
2023-03-17T05:10:47.437Z,7.40
2023-03-17T05:13:13.972Z,7.40
2023-03-17T05:15:40.636Z,7.40
2023-03-17T05:18:07.132Z,7.41
2023-03-17T05:20:33.601Z,7.42
2023-03-17T05:23:00.029Z,7.42
2023-03-17T05:25:28.005Z,7.42
2023-03-17T05:27:54.575Z,7.43
2023-03-17T05:30:21.048Z,7.43
2023-03-17T05:32:47.591Z,7.45
2023-03-17T05:35:14.067Z,7.44
2023-03-17T05:37:40.713Z,7.44
2023-03-17T05:40:08.350Z,7.44
2023-03-17T05:42:34.941Z,7.41
2023-03-17T05:45:01.398Z,7.39
2023-03-17T05:47:28.442Z,7.39
2023-03-17T05:49:54.935Z,7.37
2023-03-17T05:52:22.083Z,7.36
2023-03-17T05:54:49.083Z,7.37
2023-03-17T05:57:16.265Z,7.36
2023-03-17T05:59:44.378Z,7.37
2023-03-17T06:02:11.566Z,7.39
2023-03-17T06:04:38.978Z,7.39
2023-03-17T06:07:06.195Z,7.42
2023-03-17T06:09:33.652Z,7.43
2023-03-17T06:12:00.459Z,7.45
2023-03-17T06:14:27.339Z,7.45
2023-03-17T06:16:54.145Z,7.45
2023-03-17T06:19:20.950Z,7.46
2023-03-17T06:21:48.223Z,7.47
2023-03-17T06:24:14.696Z,7.47
2023-03-17T06:26:42.455Z,7.49
2023-03-17T06:29:10.081Z,7.50
2023-03-17T06:31:37.337Z,7.53
2023-03-17T06:34:03.927Z,7.54
2023-03-17T06:36:32.126Z,7.54
2023-03-17T06:39:00.583Z,7.55
2023-03-17T06:41:27.564Z,7.60
2023-03-17T06:43:56.568Z,7.62
2023-03-17T06:46:24.625Z,7.64
2023-03-17T06:48:51.070Z,7.66
2023-03-17T06:51:17.532Z,7.72
2023-03-17T06:53:43.981Z,7.77
2023-03-17T06:56:23.516Z,7.83
2023-03-17T06:58:51.200Z,7.89
2023-03-17T07:01:17.787Z,7.93
2023-03-17T07:03:44.467Z,8.00
2023-03-17T07:06:11.177Z,8.06
2023-03-17T07:08:37.656Z,8.11
2023-03-17T07:11:04.580Z,8.16
2023-03-17T07:13:35.484Z,8.20
2023-03-17T07:16:05.428Z,8.23
2023-03-17T07:18:34.916Z,8.27
2023-03-17T07:21:02.249Z,8.31
2023-03-17T07:23:30.277Z,8.37
2023-03-17T07:25:59.825Z,8.40
2023-03-17T07:28:26.233Z,8.46
2023-03-17T07:30:52.706Z,8.48
2023-03-17T07:33:22.422Z,8.53
2023-03-17T07:35:49.707Z,8.61
2023-03-17T07:38:17.819Z,8.68
2023-03-17T07:40:47.635Z,8.74
2023-03-17T07:43:15.173Z,8.79
2023-03-17T07:45:42.296Z,8.83
2023-03-17T07:48:09.595Z,8.86
2023-03-17T07:50:37.143Z,8.91
2023-03-17T07:53:04.677Z,8.91
2023-03-17T07:55:32.630Z,8.97
2023-03-17T07:57:59.560Z,9.09
2023-03-17T08:00:27.096Z,9.14
2023-03-17T08:03:06.963Z,9.14
2023-03-17T08:05:35.670Z,9.15
2023-03-17T08:08:02.110Z,9.18
2023-03-17T08:10:28.684Z,9.27
2023-03-17T08:12:55.682Z,9.36
2023-03-17T08:15:22.541Z,9.45
2023-03-17T08:17:49.117Z,9.58
2023-03-17T08:20:15.748Z,9.69
2023-03-17T08:22:42.317Z,9.78
2023-03-17T08:25:09.791Z,9.92
2023-03-17T08:27:36.281Z,10.09
2023-03-17T08:30:04.759Z,10.22
2023-03-17T08:32:31.271Z,10.28
2023-03-17T08:35:00.063Z,10.34
2023-03-17T08:37:26.672Z,10.42
2023-03-17T08:39:53.099Z,10.50
2023-03-17T08:42:19.513Z,10.55
2023-03-17T08:44:46.532Z,10.66
2023-03-17T08:47:13.012Z,10.73
2023-03-17T08:49:39.474Z,10.80
2023-03-17T08:52:05.941Z,10.94
2023-03-17T08:54:33.992Z,11.07
2023-03-17T08:57:04.017Z,11.21
2023-03-17T08:59:30.534Z,11.27
2023-03-17T09:01:57.019Z,11.27
2023-03-17T09:04:23.581Z,11.24
2023-03-17T09:07:02.746Z,11.23
2023-03-17T09:09:31.223Z,11.24
2023-03-17T09:11:57.720Z,11.28
2023-03-17T09:14:24.927Z,11.33
2023-03-17T09:16:52.441Z,11.40
2023-03-17T09:19:21.652Z,11.50
2023-03-17T09:21:48.606Z,11.61
2023-03-17T09:24:15.043Z,11.69
2023-03-17T09:26:41.846Z,11.71
2023-03-17T09:29:09.334Z,11.74
2023-03-17T09:31:43.458Z,11.77
2023-03-17T09:34:10.907Z,11.83
2023-03-17T09:36:37.687Z,11.89
2023-03-17T09:39:04.163Z,11.96
2023-03-17T09:41:58.848Z,12.05
2023-03-17T09:44:40.491Z,12.10
2023-03-17T09:47:40.522Z,12.13
2023-03-17T09:50:15.963Z,12.21
2023-03-17T09:52:43.773Z,12.35
2023-03-17T09:55:20.106Z,12.54
2023-03-17T09:57:47.174Z,12.64
2023-03-17T10:00:23.093Z,12.76
2023-03-17T10:02:49.563Z,12.86
2023-03-17T10:05:24.980Z,12.92
2023-03-17T10:07:59.450Z,12.98
2023-03-17T10:10:42.487Z,13.03
2023-03-17T10:13:41.570Z,12.97
2023-03-17T10:16:14.388Z,12.92
2023-03-17T10:18:49.781Z,12.86
2023-03-17T10:21:24.282Z,12.80
2023-03-17T10:23:53.427Z,12.78
2023-03-17T10:26:42.194Z,12.76
2023-03-17T10:29:16.246Z,12.79
2023-03-17T10:31:42.747Z,12.87
2023-03-17T10:34:19.343Z,13.12
2023-03-17T10:36:53.609Z,13.36
2023-03-17T10:39:24.097Z,13.54
2023-03-17T10:41:59.735Z,13.57
2023-03-17T10:44:49.790Z,13.61
2023-03-17T10:47:50.145Z,13.55
2023-03-17T10:50:25.294Z,13.55
2023-03-17T10:53:00.531Z,13.63
2023-03-17T10:55:42.638Z,13.77
2023-03-17T10:58:36.324Z,14.11
2023-03-17T11:01:15.497Z,14.35
2023-03-17T11:03:42.537Z,14.52
2023-03-17T11:06:13.251Z,14.59
2023-03-17T11:08:51.444Z,14.65
2023-03-17T11:11:45.905Z,14.69
2023-03-17T11:14:15.399Z,14.70
2023-03-17T11:16:55.333Z,14.74
2023-03-17T11:19:28.641Z,14.83
2023-03-17T11:22:04.966Z,14.89
2023-03-17T11:24:36.310Z,14.89
2023-03-17T11:27:11.990Z,14.91
2023-03-17T11:29:41.167Z,14.88
2023-03-17T11:32:28.764Z,14.87
2023-03-17T11:35:24.254Z,14.83
2023-03-17T11:38:18.881Z,14.90
2023-03-17T11:41:00.879Z,15.06
2023-03-17T11:44:16.615Z,15.28
2023-03-17T11:46:54.562Z,15.38
2023-03-17T11:49:35.964Z,15.47
2023-03-17T11:52:39.370Z,15.47
2023-03-17T11:55:16.416Z,15.49
2023-03-17T11:57:59.900Z,15.53
2023-03-17T12:00:34.494Z,15.55
2023-03-17T12:03:13.324Z,15.62
2023-03-17T12:05:42.677Z,15.69
2023-03-17T12:08:19.446Z,15.77
2023-03-17T12:10:50.573Z,15.78
2023-03-17T12:13:40.266Z,15.72
2023-03-17T12:16:20.225Z,15.81
2023-03-17T12:19:07.200Z,15.89
2023-03-17T12:21:46.118Z,15.97
2023-03-17T12:24:50.313Z,15.96
2023-03-17T12:27:25.950Z,16.01
2023-03-17T12:29:59.109Z,16.09
2023-03-17T12:32:41.879Z,16.12
2023-03-17T12:35:29.314Z,16.12
2023-03-17T12:37:59.445Z,16.15
2023-03-17T12:40:34.944Z,16.18
2023-03-17T12:43:34.668Z,16.19
2023-03-17T12:46:10.299Z,16.20
2023-03-17T12:48:39.674Z,16.26
2023-03-17T12:51:40.073Z,16.36
2023-03-17T12:54:15.313Z,16.35
2023-03-17T12:56:47.216Z,16.36
2023-03-17T12:59:21.117Z,16.29
2023-03-17T13:02:18.196Z,16.19
2023-03-17T13:05:02.020Z,16.16
2023-03-17T13:07:56.116Z,16.17
2023-03-17T13:10:37.817Z,16.23
2023-03-17T13:13:23.210Z,16.18
2023-03-17T13:15:57.778Z,16.23
2023-03-17T13:18:46.995Z,16.22
2023-03-17T13:21:17.170Z,16.22
2023-03-17T13:23:47.314Z,16.18
2023-03-17T13:26:19.009Z,16.17
2023-03-17T13:28:49.294Z,16.20
2023-03-17T13:31:29.162Z,16.21
2023-03-17T13:34:17.771Z,16.23
2023-03-17T13:36:52.721Z,16.23
2023-03-17T13:39:27.739Z,16.25
2023-03-17T13:42:19.187Z,16.27
2023-03-17T13:45:05.481Z,16.31
2023-03-17T13:47:38.323Z,16.35
2023-03-17T13:50:24.399Z,16.36
2023-03-17T13:53:08.622Z,16.36
2023-03-17T13:55:36.829Z,16.43
2023-03-17T13:58:11.876Z,16.47
2023-03-17T14:00:41.508Z,16.46
2023-03-17T14:03:16.308Z,16.42
2023-03-17T14:05:47.836Z,16.41
2023-03-17T14:08:31.972Z,16.43
2023-03-17T14:11:01.567Z,16.50
2023-03-17T14:13:32.289Z,16.49
2023-03-17T14:16:03.718Z,16.47
2023-03-17T14:18:39.013Z,16.46
2023-03-17T14:21:11.642Z,16.48
2023-03-17T14:23:38.260Z,16.47
2023-03-17T14:26:06.607Z,16.51
2023-03-17T14:28:34.777Z,16.56
2023-03-17T14:31:06.421Z,16.56
2023-03-17T14:33:36.661Z,16.58
2023-03-17T14:36:07.860Z,16.57
2023-03-17T14:38:37.025Z,16.63
2023-03-17T14:41:06.598Z,16.73
2023-03-17T14:43:35.698Z,16.79
2023-03-17T14:46:07.940Z,16.84
2023-03-17T14:48:38.058Z,16.91
2023-03-17T14:51:16.117Z,16.92
2023-03-17T14:53:47.018Z,16.93
2023-03-17T14:56:13.948Z,17.00
2023-03-17T14:58:46.012Z,17.06
2023-03-17T15:01:20.088Z,17.04
2023-03-17T15:04:15.779Z,17.03
2023-03-17T15:07:00.152Z,17.05
2023-03-17T15:09:38.213Z,17.02
2023-03-17T15:12:19.249Z,17.04
2023-03-17T15:14:46.465Z,16.94
2023-03-17T15:17:20.707Z,16.87
2023-03-17T15:19:52.730Z,16.84
2023-03-17T15:22:30.799Z,16.87
2023-03-17T15:25:16.695Z,16.90
2023-03-17T15:27:44.350Z,16.91
2023-03-17T15:30:12.263Z,16.94
2023-03-17T15:32:39.749Z,16.95
2023-03-17T15:35:07.871Z,17.00
2023-03-17T15:37:35.425Z,16.99
2023-03-17T15:40:05.666Z,16.94
2023-03-17T15:42:36.131Z,16.93
2023-03-17T15:45:04.849Z,16.89
2023-03-17T15:47:33.864Z,16.82
2023-03-17T15:50:10.017Z,16.79
2023-03-17T15:52:36.527Z,16.75
2023-03-17T15:55:16.641Z,16.73
2023-03-17T15:57:50.760Z,16.70
2023-03-17T16:00:22.809Z,16.67
2023-03-17T16:02:52.216Z,16.65
2023-03-17T16:05:22.276Z,16.62
2023-03-17T16:07:48.986Z,16.59
2023-03-17T16:10:21.710Z,16.57
2023-03-17T16:12:48.901Z,16.55
2023-03-17T16:15:24.178Z,16.51
2023-03-17T16:17:59.686Z,16.48
2023-03-17T16:20:31.426Z,16.43
2023-03-17T16:23:07.266Z,16.41
2023-03-17T16:25:37.661Z,16.36
2023-03-17T16:28:32.170Z,16.34
2023-03-17T16:31:01.028Z,16.30
2023-03-17T16:33:39.065Z,16.29
2023-03-17T16:36:09.518Z,16.24
2023-03-17T16:38:36.085Z,16.23
2023-03-17T16:41:16.624Z,16.20
2023-03-17T16:43:44.825Z,16.17
2023-03-17T16:46:14.072Z,16.12
2023-03-17T16:48:40.636Z,16.07
2023-03-17T16:51:07.193Z,16.04
2023-03-17T16:53:33.821Z,16.00
2023-03-17T16:56:00.303Z,15.96
2023-03-17T16:58:32.896Z,15.92
2023-03-17T17:01:02.493Z,15.89
2023-03-17T17:03:29.633Z,15.85
2023-03-17T17:05:56.205Z,15.82
2023-03-17T17:08:22.981Z,15.76
2023-03-17T17:10:50.248Z,15.73
2023-03-17T17:13:16.835Z,15.69
2023-03-17T17:15:43.517Z,15.67
2023-03-17T17:18:22.041Z,15.62
2023-03-17T17:20:49.319Z,15.56
2023-03-17T17:23:21.532Z,15.51
2023-03-17T17:25:49.338Z,15.47
2023-03-17T17:28:18.643Z,15.40
2023-03-17T17:30:50.178Z,15.36
2023-03-17T17:33:17.933Z,15.32
2023-03-17T17:35:45.372Z,15.28
2023-03-17T17:38:26.676Z,15.26
2023-03-17T17:41:00.860Z,15.21
2023-03-17T17:43:27.386Z,15.19
2023-03-17T17:45:54.787Z,15.18
2023-03-17T17:48:23.711Z,15.14
2023-03-17T17:50:51.870Z,15.11
2023-03-17T17:53:18.752Z,15.07
2023-03-17T17:55:47.325Z,15.04
2023-03-17T17:58:18.852Z,15.00
2023-03-17T18:00:45.337Z,14.95
2023-03-17T18:03:12.256Z,14.93
2023-03-17T18:05:40.650Z,14.87
2023-03-17T18:08:07.094Z,14.84
2023-03-17T18:10:34.588Z,14.83
2023-03-17T18:13:01.262Z,14.80
2023-03-17T18:15:27.841Z,14.77
2023-03-17T18:17:56.429Z,14.74
2023-03-17T18:20:24.045Z,14.73
2023-03-17T18:22:52.314Z,14.70
2023-03-17T18:25:19.742Z,14.72
2023-03-17T18:27:47.451Z,14.69
2023-03-17T18:30:35.141Z,14.68
2023-03-17T18:33:13.295Z,14.66
2023-03-17T18:35:40.234Z,14.66
2023-03-17T18:38:08.242Z,14.65
2023-03-17T18:40:36.013Z,14.65
2023-03-17T18:43:02.608Z,14.61
2023-03-17T18:45:29.074Z,14.60
2023-03-17T18:47:55.822Z,14.59
2023-03-17T18:50:22.524Z,14.56
2023-03-17T18:52:49.859Z,14.53
2023-03-17T18:55:17.096Z,14.52
2023-03-17T18:57:44.930Z,14.50
2023-03-17T19:00:14.042Z,14.47
2023-03-17T19:02:40.715Z,14.44
2023-03-17T19:05:07.556Z,14.43
2023-03-17T19:07:34.661Z,14.42
2023-03-17T19:10:01.116Z,14.40
2023-03-17T19:12:28.330Z,14.36
2023-03-17T19:14:55.483Z,14.36
2023-03-17T19:17:22.703Z,14.36
2023-03-17T19:19:50.532Z,14.34
2023-03-17T19:22:17.172Z,14.34
2023-03-17T19:24:43.997Z,14.32
2023-03-17T19:27:10.472Z,14.30
2023-03-17T19:29:36.871Z,14.29
2023-03-17T19:32:03.858Z,14.28
2023-03-17T19:34:30.410Z,14.28
2023-03-17T19:36:56.874Z,14.28
2023-03-17T19:39:23.684Z,14.26
2023-03-17T19:41:53.254Z,14.23
2023-03-17T19:44:19.695Z,14.21
2023-03-17T19:46:46.255Z,14.21
2023-03-17T19:49:12.699Z,14.18
2023-03-17T19:51:39.260Z,14.14
2023-03-17T19:54:06.075Z,14.11
2023-03-17T19:56:33.677Z,14.12
2023-03-17T19:59:00.522Z,14.12
2023-03-17T20:01:28.979Z,14.12
2023-03-17T20:03:55.543Z,14.11
2023-03-17T20:06:22.183Z,14.09
2023-03-17T20:08:48.605Z,14.08
2023-03-17T20:11:15.044Z,14.08
2023-03-17T20:13:41.854Z,14.05
2023-03-17T20:16:09.044Z,14.05
2023-03-17T20:18:36.019Z,14.05
2023-03-17T20:21:05.664Z,14.04
2023-03-17T20:23:32.923Z,14.04
2023-03-17T20:26:00.396Z,14.06
2023-03-17T20:28:29.837Z,14.04
2023-03-17T20:31:00.382Z,14.04
2023-03-17T20:33:27.809Z,14.05
2023-03-17T20:35:54.417Z,14.05
2023-03-17T20:38:21.230Z,14.05
2023-03-17T20:40:47.739Z,14.05
2023-03-17T20:43:14.225Z,14.08
2023-03-17T20:45:41.124Z,14.09
2023-03-17T20:48:09.337Z,14.08
2023-03-17T20:50:36.509Z,14.08
2023-03-17T20:53:02.895Z,14.08
2023-03-17T20:55:30.766Z,14.08
2023-03-17T20:57:58.841Z,14.08
2023-03-17T21:00:26.169Z,14.08
2023-03-17T21:02:53.117Z,14.06
2023-03-17T21:05:23.729Z,14.06
2023-03-17T21:07:50.624Z,14.04
2023-03-17T21:10:17.960Z,14.02
2023-03-17T21:12:45.040Z,14.02
2023-03-17T21:15:12.985Z,14.01
2023-03-17T21:17:40.410Z,14.00
2023-03-17T21:20:09.546Z,13.98
2023-03-17T21:22:36.859Z,13.96
2023-03-17T21:25:08.649Z,13.93
2023-03-17T21:27:40.658Z,13.90
2023-03-17T21:30:11.926Z,13.90
2023-03-17T21:32:40.353Z,13.88
2023-03-17T21:35:08.087Z,13.87
2023-03-17T21:37:35.069Z,13.87
2023-03-17T21:40:01.696Z,13.85
2023-03-17T21:42:28.361Z,13.83
2023-03-17T21:44:55.172Z,13.81
2023-03-17T21:47:21.576Z,13.81
2023-03-17T21:49:48.031Z,13.79
2023-03-17T21:52:15.083Z,13.76
2023-03-17T21:54:41.950Z,13.77
2023-03-17T21:57:08.676Z,13.75
2023-03-17T21:59:35.705Z,13.74
2023-03-17T22:02:02.923Z,13.73
2023-03-17T22:04:29.939Z,13.71
2023-03-17T22:06:58.763Z,13.70
2023-03-17T22:09:25.301Z,13.69
2023-03-17T22:11:51.774Z,13.70
2023-03-17T22:14:20.503Z,13.67
2023-03-17T22:16:48.325Z,13.66
2023-03-17T22:19:15.695Z,13.63
2023-03-17T22:21:42.777Z,13.60
2023-03-17T22:24:09.306Z,13.60
2023-03-17T22:26:35.772Z,13.60
2023-03-17T22:29:02.397Z,13.55
2023-03-17T22:31:29.659Z,13.51
2023-03-17T22:33:58.334Z,13.49
2023-03-17T22:36:25.629Z,13.47
2023-03-17T22:38:52.613Z,13.42
2023-03-17T22:41:22.720Z,13.42
2023-03-17T22:43:49.684Z,13.39
2023-03-17T22:46:16.933Z,13.37
2023-03-17T22:48:44.423Z,13.34
2023-03-17T22:51:16.742Z,13.31
2023-03-17T22:53:44.245Z,13.28
2023-03-17T22:56:12.220Z,13.29
2023-03-17T22:58:39.281Z,13.27
2023-03-17T23:01:09.108Z,13.27
2023-03-17T23:03:35.753Z,13.24
2023-03-17T23:06:03.892Z,13.23
2023-03-17T23:08:34.972Z,13.21
2023-03-17T23:11:08.701Z,13.20
2023-03-17T23:13:35.542Z,13.18
2023-03-17T23:16:02.984Z,13.16
2023-03-17T23:18:29.375Z,13.13
2023-03-17T23:20:55.780Z,13.11
2023-03-17T23:23:22.188Z,13.06
2023-03-17T23:25:49.045Z,13.00
2023-03-17T23:28:15.972Z,12.97
2023-03-17T23:30:45.714Z,12.91
2023-03-17T23:33:12.303Z,12.88
2023-03-17T23:35:39.573Z,12.87
2023-03-17T23:38:06.133Z,12.87
2023-03-17T23:40:34.417Z,12.81
2023-03-17T23:43:01.888Z,12.80
2023-03-17T23:45:28.487Z,12.79
2023-03-17T23:47:57.310Z,12.76
2023-03-17T23:50:23.797Z,12.73
2023-03-17T23:52:50.482Z,12.70
2023-03-17T23:55:17.380Z,12.68
2023-03-17T23:57:44.288Z,12.64
